sensor_id;sensor_type;location;lat;lon;timestamp;P1;durP1;ratioP1;P2;durP2;ratioP2
46589;SDS011;32313;48.722;9.362;2023-08-01T00:00:59;7.47;;;6.43;;
46589;SDS011;32313;48.722;9.362;2023-08-01T00:03:25;6.87;;;6.20;;
46589;SDS011;32313;48.722;9.362;2023-08-01T00:05:50;9.50;;;6.67;;
46589;SDS011;32313;48.722;9.362;2023-08-01T00:08:16;7.07;;;6.03;;
46589;SDS011;32313;48.722;9.362;2023-08-01T00:10:42;8.27;;;6.63;;
46589;SDS011;32313;48.722;9.362;2023-08-01T00:13:08;8.43;;;6.80;;
46589;SDS011;32313;48.722;9.362;2023-08-01T00:15:34;6.97;;;6.27;;
46589;SDS011;32313;48.722;9.362;2023-08-01T00:18:00;9.57;;;6.90;;
46589;SDS011;32313;48.722;9.362;2023-08-01T00:20:26;12.27;;;7.53;;
46589;SDS011;32313;48.722;9.362;2023-08-01T00:22:52;7.30;;;6.43;;
46589;SDS011;32313;48.722;9.362;2023-08-01T00:25:18;9.83;;;7.30;;
46589;SDS011;32313;48.722;9.362;2023-08-01T00:27:44;9.47;;;7.43;;
46589;SDS011;32313;48.722;9.362;2023-08-01T00:30:10;8.23;;;6.53;;
46589;SDS011;32313;48.722;9.362;2023-08-01T00:32:36;10.27;;;7.37;;
46589;SDS011;32313;48.722;9.362;2023-08-01T00:35:03;8.80;;;6.70;;
46589;SDS011;32313;48.722;9.362;2023-08-01T00:37:29;8.63;;;7.40;;
46589;SDS011;32313;48.722;9.362;2023-08-01T00:39:55;8.10;;;7.10;;
46589;SDS011;32313;48.722;9.362;2023-08-01T00:42:21;7.97;;;6.53;;
46589;SDS011;32313;48.722;9.362;2023-08-01T00:44:47;10.43;;;7.13;;
46589;SDS011;32313;48.722;9.362;2023-08-01T00:47:15;7.40;;;6.63;;
46589;SDS011;32313;48.722;9.362;2023-08-01T00:49:40;11.13;;;7.17;;
46589;SDS011;32313;48.722;9.362;2023-08-01T00:52:07;7.83;;;6.37;;
46589;SDS011;32313;48.722;9.362;2023-08-01T00:54:35;9.63;;;6.63;;
46589;SDS011;32313;48.722;9.362;2023-08-01T00:57:05;9.07;;;6.23;;
46589;SDS011;32313;48.722;9.362;2023-08-01T00:59:31;8.63;;;7.43;;
46589;SDS011;32313;48.722;9.362;2023-08-01T01:01:58;7.70;;;6.60;;
46589;SDS011;32313;48.722;9.362;2023-08-01T01:04:25;10.77;;;7.63;;
46589;SDS011;32313;48.722;9.362;2023-08-01T01:07:02;9.17;;;7.90;;
46589;SDS011;32313;48.722;9.362;2023-08-01T01:09:30;10.00;;;7.90;;
46589;SDS011;32313;48.722;9.362;2023-08-01T01:11:57;8.53;;;7.40;;
46589;SDS011;32313;48.722;9.362;2023-08-01T01:14:24;10.20;;;7.27;;
46589;SDS011;32313;48.722;9.362;2023-08-01T01:16:53;8.90;;;8.00;;
46589;SDS011;32313;48.722;9.362;2023-08-01T01:19:19;8.90;;;6.90;;
46589;SDS011;32313;48.722;9.362;2023-08-01T01:21:45;11.93;;;7.30;;
46589;SDS011;32313;48.722;9.362;2023-08-01T01:24:12;11.10;;;7.60;;
46589;SDS011;32313;48.722;9.362;2023-08-01T01:26:40;9.53;;;7.27;;
46589;SDS011;32313;48.722;9.362;2023-08-01T01:29:06;8.17;;;7.33;;
46589;SDS011;32313;48.722;9.362;2023-08-01T01:31:36;10.10;;;6.97;;
46589;SDS011;32313;48.722;9.362;2023-08-01T01:34:02;10.73;;;7.80;;
46589;SDS011;32313;48.722;9.362;2023-08-01T01:36:28;8.50;;;7.43;;
46589;SDS011;32313;48.722;9.362;2023-08-01T01:38:54;11.43;;;7.87;;
46589;SDS011;32313;48.722;9.362;2023-08-01T01:41:20;10.53;;;7.97;;
46589;SDS011;32313;48.722;9.362;2023-08-01T01:43:47;10.03;;;7.53;;
46589;SDS011;32313;48.722;9.362;2023-08-01T01:46:13;9.03;;;7.90;;
46589;SDS011;32313;48.722;9.362;2023-08-01T01:48:38;10.00;;;8.03;;
46589;SDS011;32313;48.722;9.362;2023-08-01T01:51:04;11.37;;;8.13;;
46589;SDS011;32313;48.722;9.362;2023-08-01T01:53:30;8.63;;;7.70;;
46589;SDS011;32313;48.722;9.362;2023-08-01T01:55:55;9.13;;;8.10;;
46589;SDS011;32313;48.722;9.362;2023-08-01T01:58:21;7.80;;;7.00;;
46589;SDS011;32313;48.722;9.362;2023-08-01T02:00:48;9.33;;;7.10;;
46589;SDS011;32313;48.722;9.362;2023-08-01T02:03:14;10.53;;;7.40;;
46589;SDS011;32313;48.722;9.362;2023-08-01T02:05:40;9.93;;;7.47;;
46589;SDS011;32313;48.722;9.362;2023-08-01T02:08:06;8.33;;;7.43;;
46589;SDS011;32313;48.722;9.362;2023-08-01T02:10:32;8.23;;;7.43;;
46589;SDS011;32313;48.722;9.362;2023-08-01T02:12:58;8.37;;;7.40;;
46589;SDS011;32313;48.722;9.362;2023-08-01T02:15:24;8.77;;;7.17;;
46589;SDS011;32313;48.722;9.362;2023-08-01T02:17:49;11.27;;;7.00;;
46589;SDS011;32313;48.722;9.362;2023-08-01T02:20:15;11.07;;;8.07;;
46589;SDS011;32313;48.722;9.362;2023-08-01T02:22:41;9.43;;;7.47;;
46589;SDS011;32313;48.722;9.362;2023-08-01T02:25:07;9.30;;;7.90;;
46589;SDS011;32313;48.722;9.362;2023-08-01T02:27:32;9.83;;;7.93;;
46589;SDS011;32313;48.722;9.362;2023-08-01T02:29:58;11.27;;;8.07;;
46589;SDS011;32313;48.722;9.362;2023-08-01T02:32:24;8.83;;;7.70;;
46589;SDS011;32313;48.722;9.362;2023-08-01T02:34:50;10.53;;;8.63;;
46589;SDS011;32313;48.722;9.362;2023-08-01T02:37:16;9.03;;;8.13;;
46589;SDS011;32313;48.722;9.362;2023-08-01T02:39:41;7.90;;;7.10;;
46589;SDS011;32313;48.722;9.362;2023-08-01T02:42:07;11.50;;;8.43;;
46589;SDS011;32313;48.722;9.362;2023-08-01T02:44:33;10.20;;;8.53;;
46589;SDS011;32313;48.722;9.362;2023-08-01T02:46:59;9.47;;;7.93;;
46589;SDS011;32313;48.722;9.362;2023-08-01T02:49:24;9.23;;;7.80;;
46589;SDS011;32313;48.722;9.362;2023-08-01T02:51:50;7.80;;;7.00;;
46589;SDS011;32313;48.722;9.362;2023-08-01T02:54:16;8.57;;;7.57;;
46589;SDS011;32313;48.722;9.362;2023-08-01T02:56:41;9.57;;;7.80;;
46589;SDS011;32313;48.722;9.362;2023-08-01T02:59:07;11.03;;;8.23;;
46589;SDS011;32313;48.722;9.362;2023-08-01T03:01:37;11.17;;;8.63;;
46589;SDS011;32313;48.722;9.362;2023-08-01T03:04:03;11.27;;;8.67;;
46589;SDS011;32313;48.722;9.362;2023-08-01T03:06:30;9.43;;;8.00;;
46589;SDS011;32313;48.722;9.362;2023-08-01T03:08:57;9.57;;;8.23;;
46589;SDS011;32313;48.722;9.362;2023-08-01T03:11:22;10.37;;;8.73;;
46589;SDS011;32313;48.722;9.362;2023-08-01T03:13:48;11.20;;;8.30;;
46589;SDS011;32313;48.722;9.362;2023-08-01T03:16:14;9.53;;;7.73;;
46589;SDS011;32313;48.722;9.362;2023-08-01T03:18:39;9.87;;;8.43;;
46589;SDS011;32313;48.722;9.362;2023-08-01T03:21:05;10.87;;;8.70;;
46589;SDS011;32313;48.722;9.362;2023-08-01T03:23:31;10.57;;;8.00;;
46589;SDS011;32313;48.722;9.362;2023-08-01T03:25:57;10.57;;;8.67;;
46589;SDS011;32313;48.722;9.362;2023-08-01T03:28:23;9.43;;;8.47;;
46589;SDS011;32313;48.722;9.362;2023-08-01T03:30:51;9.30;;;8.10;;
46589;SDS011;32313;48.722;9.362;2023-08-01T03:33:18;11.20;;;7.63;;
46589;SDS011;32313;48.722;9.362;2023-08-01T03:35:44;10.27;;;6.47;;
46589;SDS011;32313;48.722;9.362;2023-08-01T03:38:11;8.27;;;6.80;;
46589;SDS011;32313;48.722;9.362;2023-08-01T03:40:37;7.63;;;6.57;;
46589;SDS011;32313;48.722;9.362;2023-08-01T03:43:03;8.17;;;6.63;;
46589;SDS011;32313;48.722;9.362;2023-08-01T03:45:28;6.20;;;5.60;;
46589;SDS011;32313;48.722;9.362;2023-08-01T03:47:55;6.40;;;5.27;;
46589;SDS011;32313;48.722;9.362;2023-08-01T03:50:22;9.13;;;5.77;;
46589;SDS011;32313;48.722;9.362;2023-08-01T03:52:48;6.57;;;5.60;;
46589;SDS011;32313;48.722;9.362;2023-08-01T03:55:14;5.80;;;5.20;;
46589;SDS011;32313;48.722;9.362;2023-08-01T03:57:41;8.43;;;5.43;;
46589;SDS011;32313;48.722;9.362;2023-08-01T04:00:08;5.83;;;5.27;;
46589;SDS011;32313;48.722;9.362;2023-08-01T04:02:43;5.80;;;5.23;;
46589;SDS011;32313;48.722;9.362;2023-08-01T04:05:10;6.67;;;5.70;;
46589;SDS011;32313;48.722;9.362;2023-08-01T04:07:36;6.77;;;5.63;;
46589;SDS011;32313;48.722;9.362;2023-08-01T04:10:03;8.07;;;5.47;;
46589;SDS011;32313;48.722;9.362;2023-08-01T04:12:32;6.37;;;5.30;;
46589;SDS011;32313;48.722;9.362;2023-08-01T04:14:58;6.50;;;5.47;;
46589;SDS011;32313;48.722;9.362;2023-08-01T04:17:24;7.10;;;5.60;;
46589;SDS011;32313;48.722;9.362;2023-08-01T04:19:50;6.60;;;5.90;;
46589;SDS011;32313;48.722;9.362;2023-08-01T04:22:16;8.17;;;6.47;;
46589;SDS011;32313;48.722;9.362;2023-08-01T04:24:42;6.63;;;5.80;;
46589;SDS011;32313;48.722;9.362;2023-08-01T04:27:07;7.67;;;5.50;;
46589;SDS011;32313;48.722;9.362;2023-08-01T04:29:33;5.97;;;5.20;;
46589;SDS011;32313;48.722;9.362;2023-08-01T04:31:59;11.27;;;6.20;;
46589;SDS011;32313;48.722;9.362;2023-08-01T04:34:25;7.60;;;5.70;;
46589;SDS011;32313;48.722;9.362;2023-08-01T04:36:50;5.93;;;5.43;;
46589;SDS011;32313;48.722;9.362;2023-08-01T04:39:16;6.10;;;5.37;;
46589;SDS011;32313;48.722;9.362;2023-08-01T04:41:42;5.50;;;5.00;;
46589;SDS011;32313;48.722;9.362;2023-08-01T04:44:07;8.43;;;6.00;;
46589;SDS011;32313;48.722;9.362;2023-08-01T04:46:33;5.67;;;5.07;;
46589;SDS011;32313;48.722;9.362;2023-08-01T04:48:59;5.37;;;4.50;;
46589;SDS011;32313;48.722;9.362;2023-08-01T04:51:25;7.93;;;4.93;;
46589;SDS011;32313;48.722;9.362;2023-08-01T04:53:50;7.77;;;4.97;;
46589;SDS011;32313;48.722;9.362;2023-08-01T04:56:16;5.63;;;4.70;;
46589;SDS011;32313;48.722;9.362;2023-08-01T04:58:42;5.10;;;4.33;;
46589;SDS011;32313;48.722;9.362;2023-08-01T05:01:07;5.57;;;5.00;;
46589;SDS011;32313;48.722;9.362;2023-08-01T05:03:33;5.47;;;4.70;;
46589;SDS011;32313;48.722;9.362;2023-08-01T05:05:59;5.07;;;4.23;;
46589;SDS011;32313;48.722;9.362;2023-08-01T05:08:25;9.87;;;4.70;;
46589;SDS011;32313;48.722;9.362;2023-08-01T05:10:50;5.13;;;4.13;;
46589;SDS011;32313;48.722;9.362;2023-08-01T05:13:16;4.57;;;4.17;;
46589;SDS011;32313;48.722;9.362;2023-08-01T05:15:45;6.57;;;4.20;;
46589;SDS011;32313;48.722;9.362;2023-08-01T05:18:15;6.53;;;4.77;;
46589;SDS011;32313;48.722;9.362;2023-08-01T05:20:42;5.83;;;4.13;;
46589;SDS011;32313;48.722;9.362;2023-08-01T05:23:08;6.13;;;4.40;;
46589;SDS011;32313;48.722;9.362;2023-08-01T05:25:34;6.50;;;4.80;;
46589;SDS011;32313;48.722;9.362;2023-08-01T05:27:59;5.87;;;4.20;;
46589;SDS011;32313;48.722;9.362;2023-08-01T05:30:25;6.73;;;4.87;;
46589;SDS011;32313;48.722;9.362;2023-08-01T05:32:51;7.17;;;5.40;;
46589;SDS011;32313;48.722;9.362;2023-08-01T05:35:17;5.40;;;4.60;;
46589;SDS011;32313;48.722;9.362;2023-08-01T05:37:43;7.63;;;5.00;;
46589;SDS011;32313;48.722;9.362;2023-08-01T05:40:08;5.50;;;4.37;;
46589;SDS011;32313;48.722;9.362;2023-08-01T05:42:35;5.93;;;4.40;;
46589;SDS011;32313;48.722;9.362;2023-08-01T05:45:00;6.87;;;4.80;;
46589;SDS011;32313;48.722;9.362;2023-08-01T05:47:26;6.93;;;5.03;;
46589;SDS011;32313;48.722;9.362;2023-08-01T05:49:52;6.40;;;4.40;;
46589;SDS011;32313;48.722;9.362;2023-08-01T05:52:17;4.87;;;4.27;;
46589;SDS011;32313;48.722;9.362;2023-08-01T05:54:43;7.20;;;5.30;;
46589;SDS011;32313;48.722;9.362;2023-08-01T05:57:10;7.17;;;5.20;;
46589;SDS011;32313;48.722;9.362;2023-08-01T05:59:36;5.80;;;4.90;;
46589;SDS011;32313;48.722;9.362;2023-08-01T06:02:01;5.87;;;4.80;;
46589;SDS011;32313;48.722;9.362;2023-08-01T06:04:28;6.00;;;4.70;;
46589;SDS011;32313;48.722;9.362;2023-08-01T06:06:53;8.03;;;5.40;;
46589;SDS011;32313;48.722;9.362;2023-08-01T06:09:19;6.67;;;4.90;;
46589;SDS011;32313;48.722;9.362;2023-08-01T06:11:45;6.87;;;5.27;;
46589;SDS011;32313;48.722;9.362;2023-08-01T06:14:11;8.30;;;5.27;;
46589;SDS011;32313;48.722;9.362;2023-08-01T06:16:37;6.00;;;4.77;;
46589;SDS011;32313;48.722;9.362;2023-08-01T06:19:03;7.83;;;4.33;;
46589;SDS011;32313;48.722;9.362;2023-08-01T06:21:29;6.83;;;5.23;;
46589;SDS011;32313;48.722;9.362;2023-08-01T06:23:55;9.83;;;5.00;;
46589;SDS011;32313;48.722;9.362;2023-08-01T06:26:20;7.27;;;5.57;;
46589;SDS011;32313;48.722;9.362;2023-08-01T06:28:46;5.87;;;4.80;;
46589;SDS011;32313;48.722;9.362;2023-08-01T06:31:12;5.97;;;4.70;;
46589;SDS011;32313;48.722;9.362;2023-08-01T06:33:37;5.83;;;4.70;;
46589;SDS011;32313;48.722;9.362;2023-08-01T06:36:03;4.80;;;3.93;;
46589;SDS011;32313;48.722;9.362;2023-08-01T06:38:30;6.30;;;4.43;;
46589;SDS011;32313;48.722;9.362;2023-08-01T06:40:55;4.67;;;4.20;;
46589;SDS011;32313;48.722;9.362;2023-08-01T06:43:21;4.47;;;4.07;;
46589;SDS011;32313;48.722;9.362;2023-08-01T06:45:49;4.90;;;4.07;;
46589;SDS011;32313;48.722;9.362;2023-08-01T06:48:15;5.00;;;4.50;;
46589;SDS011;32313;48.722;9.362;2023-08-01T06:50:41;4.53;;;3.93;;
46589;SDS011;32313;48.722;9.362;2023-08-01T06:53:06;5.03;;;4.07;;
46589;SDS011;32313;48.722;9.362;2023-08-01T06:55:33;4.77;;;4.10;;
46589;SDS011;32313;48.722;9.362;2023-08-01T06:57:59;6.47;;;3.83;;
46589;SDS011;32313;48.722;9.362;2023-08-01T07:00:25;4.20;;;3.80;;
46589;SDS011;32313;48.722;9.362;2023-08-01T07:02:50;5.30;;;4.33;;
46589;SDS011;32313;48.722;9.362;2023-08-01T07:05:16;6.37;;;4.50;;
46589;SDS011;32313;48.722;9.362;2023-08-01T07:07:42;6.57;;;4.30;;
46589;SDS011;32313;48.722;9.362;2023-08-01T07:10:07;4.67;;;4.17;;
46589;SDS011;32313;48.722;9.362;2023-08-01T07:12:33;7.23;;;5.10;;
46589;SDS011;32313;48.722;9.362;2023-08-01T07:14:59;6.17;;;4.57;;
46589;SDS011;32313;48.722;9.362;2023-08-01T07:17:25;6.17;;;5.07;;
46589;SDS011;32313;48.722;9.362;2023-08-01T07:19:50;6.10;;;5.10;;
46589;SDS011;32313;48.722;9.362;2023-08-01T07:22:16;6.40;;;5.60;;
46589;SDS011;32313;48.722;9.362;2023-08-01T07:24:42;5.40;;;4.70;;
46589;SDS011;32313;48.722;9.362;2023-08-01T07:27:08;6.10;;;5.17;;
46589;SDS011;32313;48.722;9.362;2023-08-01T07:29:33;6.07;;;5.23;;
46589;SDS011;32313;48.722;9.362;2023-08-01T07:31:59;8.17;;;5.30;;
46589;SDS011;32313;48.722;9.362;2023-08-01T07:34:25;5.83;;;5.23;;
46589;SDS011;32313;48.722;9.362;2023-08-01T07:36:50;7.17;;;5.23;;
46589;SDS011;32313;48.722;9.362;2023-08-01T07:39:16;8.40;;;5.63;;
46589;SDS011;32313;48.722;9.362;2023-08-01T07:41:42;7.50;;;5.43;;
46589;SDS011;32313;48.722;9.362;2023-08-01T07:44:07;6.37;;;5.30;;
46589;SDS011;32313;48.722;9.362;2023-08-01T07:46:33;7.37;;;5.10;;
46589;SDS011;32313;48.722;9.362;2023-08-01T07:48:59;7.47;;;5.60;;
46589;SDS011;32313;48.722;9.362;2023-08-01T07:51:25;6.67;;;5.77;;
46589;SDS011;32313;48.722;9.362;2023-08-01T07:53:51;6.37;;;5.73;;
46589;SDS011;32313;48.722;9.362;2023-08-01T07:56:18;8.13;;;6.10;;
46589;SDS011;32313;48.722;9.362;2023-08-01T07:58:44;6.17;;;5.50;;
46589;SDS011;32313;48.722;9.362;2023-08-01T08:01:10;6.77;;;5.83;;
46589;SDS011;32313;48.722;9.362;2023-08-01T08:03:35;8.47;;;6.00;;
46589;SDS011;32313;48.722;9.362;2023-08-01T08:06:01;7.20;;;6.30;;
46589;SDS011;32313;48.722;9.362;2023-08-01T08:08:29;8.73;;;6.17;;
46589;SDS011;32313;48.722;9.362;2023-08-01T08:10:55;7.83;;;6.30;;
46589;SDS011;32313;48.722;9.362;2023-08-01T08:13:21;7.33;;;5.57;;
46589;SDS011;32313;48.722;9.362;2023-08-01T08:15:47;9.13;;;6.10;;
46589;SDS011;32313;48.722;9.362;2023-08-01T08:18:12;9.23;;;6.77;;
46589;SDS011;32313;48.722;9.362;2023-08-01T08:20:42;8.33;;;6.27;;
46589;SDS011;32313;48.722;9.362;2023-08-01T08:23:09;9.20;;;6.10;;
46589;SDS011;32313;48.722;9.362;2023-08-01T08:25:35;8.73;;;5.77;;
46589;SDS011;32313;48.722;9.362;2023-08-01T08:28:01;11.83;;;6.23;;
46589;SDS011;32313;48.722;9.362;2023-08-01T08:30:27;7.50;;;6.70;;
46589;SDS011;32313;48.722;9.362;2023-08-01T08:32:53;8.43;;;6.70;;
46589;SDS011;32313;48.722;9.362;2023-08-01T08:35:18;7.83;;;6.90;;
46589;SDS011;32313;48.722;9.362;2023-08-01T08:37:44;7.93;;;6.37;;
46589;SDS011;32313;48.722;9.362;2023-08-01T08:40:10;8.07;;;6.60;;
46589;SDS011;32313;48.722;9.362;2023-08-01T08:42:38;6.80;;;5.93;;
46589;SDS011;32313;48.722;9.362;2023-08-01T08:45:05;8.77;;;6.70;;
46589;SDS011;32313;48.722;9.362;2023-08-01T08:47:32;6.73;;;6.13;;
46589;SDS011;32313;48.722;9.362;2023-08-01T08:50:01;8.70;;;6.23;;
46589;SDS011;32313;48.722;9.362;2023-08-01T08:52:28;7.47;;;6.00;;
46589;SDS011;32313;48.722;9.362;2023-08-01T08:54:54;6.53;;;5.47;;
46589;SDS011;32313;48.722;9.362;2023-08-01T08:57:21;9.13;;;6.33;;
46589;SDS011;32313;48.722;9.362;2023-08-01T08:59:48;9.30;;;5.97;;
46589;SDS011;32313;48.722;9.362;2023-08-01T09:02:15;9.53;;;6.27;;
46589;SDS011;32313;48.722;9.362;2023-08-01T09:04:42;6.23;;;5.60;;
46589;SDS011;32313;48.722;9.362;2023-08-01T09:07:08;7.17;;;6.10;;
46589;SDS011;32313;48.722;9.362;2023-08-01T09:09:36;6.67;;;6.07;;
46589;SDS011;32313;48.722;9.362;2023-08-01T09:12:02;5.50;;;4.83;;
46589;SDS011;32313;48.722;9.362;2023-08-01T09:14:28;6.50;;;5.80;;
46589;SDS011;32313;48.722;9.362;2023-08-01T09:16:54;7.07;;;5.20;;
46589;SDS011;32313;48.722;9.362;2023-08-01T09:19:24;5.47;;;4.37;;
46589;SDS011;32313;48.722;9.362;2023-08-01T09:21:52;5.33;;;4.40;;
46589;SDS011;32313;48.722;9.362;2023-08-01T09:24:19;4.30;;;3.90;;
46589;SDS011;32313;48.722;9.362;2023-08-01T09:26:46;6.50;;;4.20;;
46589;SDS011;32313;48.722;9.362;2023-08-01T09:29:15;7.17;;;4.27;;
46589;SDS011;32313;48.722;9.362;2023-08-01T09:31:42;5.40;;;4.33;;
46589;SDS011;32313;48.722;9.362;2023-08-01T09:34:18;4.37;;;3.87;;
46589;SDS011;32313;48.722;9.362;2023-08-01T09:36:46;4.20;;;3.80;;
46589;SDS011;32313;48.722;9.362;2023-08-01T09:39:15;5.83;;;3.93;;
46589;SDS011;32313;48.722;9.362;2023-08-01T09:41:46;3.80;;;3.40;;
46589;SDS011;32313;48.722;9.362;2023-08-01T09:44:19;3.63;;;3.30;;
46589;SDS011;32313;48.722;9.362;2023-08-01T09:49:48;5.23;;;3.47;;
46589;SDS011;32313;48.722;9.362;2023-08-01T09:52:15;3.80;;;3.40;;
46589;SDS011;32313;48.722;9.362;2023-08-01T09:54:51;4.87;;;3.10;;
46589;SDS011;32313;48.722;9.362;2023-08-01T09:57:16;3.63;;;2.90;;
46589;SDS011;32313;48.722;9.362;2023-08-01T09:59:43;3.23;;;3.00;;
46589;SDS011;32313;48.722;9.362;2023-08-01T10:02:09;3.30;;;2.80;;
46589;SDS011;32313;48.722;9.362;2023-08-01T10:04:41;3.30;;;3.00;;
46589;SDS011;32313;48.722;9.362;2023-08-01T10:07:11;2.50;;;2.30;;
46589;SDS011;32313;48.722;9.362;2023-08-01T10:09:37;2.90;;;2.70;;
46589;SDS011;32313;48.722;9.362;2023-08-01T10:12:04;3.53;;;2.30;;
46589;SDS011;32313;48.722;9.362;2023-08-01T10:14:31;3.27;;;2.40;;
46589;SDS011;32313;48.722;9.362;2023-08-01T10:16:58;2.30;;;2.10;;
46589;SDS011;32313;48.722;9.362;2023-08-01T10:19:24;2.20;;;2.00;;
46589;SDS011;32313;48.722;9.362;2023-08-01T10:21:51;3.70;;;2.10;;
46589;SDS011;32313;48.722;9.362;2023-08-01T10:24:17;3.20;;;2.40;;
46589;SDS011;32313;48.722;9.362;2023-08-01T10:26:45;2.50;;;2.30;;
46589;SDS011;32313;48.722;9.362;2023-08-01T10:29:11;2.53;;;2.00;;
46589;SDS011;32313;48.722;9.362;2023-08-01T10:31:37;2.70;;;2.30;;
46589;SDS011;32313;48.722;9.362;2023-08-01T10:34:07;2.20;;;2.00;;
46589;SDS011;32313;48.722;9.362;2023-08-01T10:36:37;2.10;;;2.00;;
46589;SDS011;32313;48.722;9.362;2023-08-01T10:39:03;2.50;;;2.30;;
46589;SDS011;32313;48.722;9.362;2023-08-01T10:41:30;2.47;;;2.00;;
46589;SDS011;32313;48.722;9.362;2023-08-01T10:44:07;2.93;;;2.50;;
46589;SDS011;32313;48.722;9.362;2023-08-01T10:49:14;2.50;;;2.30;;
46589;SDS011;32313;48.722;9.362;2023-08-01T10:51:41;2.53;;;2.30;;
46589;SDS011;32313;48.722;9.362;2023-08-01T10:54:29;2.70;;;2.20;;
46589;SDS011;32313;48.722;9.362;2023-08-01T10:56:55;3.37;;;2.40;;
46589;SDS011;32313;48.722;9.362;2023-08-01T10:59:25;2.00;;;1.90;;
46589;SDS011;32313;48.722;9.362;2023-08-01T11:01:51;3.10;;;2.20;;
46589;SDS011;32313;48.722;9.362;2023-08-01T11:04:19;2.80;;;2.27;;
46589;SDS011;32313;48.722;9.362;2023-08-01T11:06:46;2.33;;;2.00;;
46589;SDS011;32313;48.722;9.362;2023-08-01T11:09:14;2.27;;;1.70;;
46589;SDS011;32313;48.722;9.362;2023-08-01T11:11:45;1.80;;;1.70;;
46589;SDS011;32313;48.722;9.362;2023-08-01T11:14:12;1.70;;;1.53;;
46589;SDS011;32313;48.722;9.362;2023-08-01T11:16:41;2.10;;;1.40;;
46589;SDS011;32313;48.722;9.362;2023-08-01T11:21:44;1.40;;;1.30;;
46589;SDS011;32313;48.722;9.362;2023-08-01T11:24:10;1.47;;;1.20;;
46589;SDS011;32313;48.722;9.362;2023-08-01T11:26:36;1.53;;;1.40;;
46589;SDS011;32313;48.722;9.362;2023-08-01T11:29:06;1.80;;;1.20;;
46589;SDS011;32313;48.722;9.362;2023-08-01T11:31:31;1.10;;;1.10;;
46589;SDS011;32313;48.722;9.362;2023-08-01T11:33:57;1.80;;;1.17;;
46589;SDS011;32313;48.722;9.362;2023-08-01T11:36:26;1.30;;;1.20;;
46589;SDS011;32313;48.722;9.362;2023-08-01T11:38:53;3.10;;;1.40;;
46589;SDS011;32313;48.722;9.362;2023-08-01T11:41:22;1.40;;;1.30;;
46589;SDS011;32313;48.722;9.362;2023-08-01T11:43:49;1.57;;;1.30;;
46589;SDS011;32313;48.722;9.362;2023-08-01T11:46:16;2.00;;;1.60;;
46589;SDS011;32313;48.722;9.362;2023-08-01T11:48:45;1.70;;;1.57;;
46589;SDS011;32313;48.722;9.362;2023-08-01T11:51:19;1.47;;;1.37;;
46589;SDS011;32313;48.722;9.362;2023-08-01T11:53:45;1.50;;;1.20;;
46589;SDS011;32313;48.722;9.362;2023-08-01T11:56:21;1.50;;;1.30;;
46589;SDS011;32313;48.722;9.362;2023-08-01T11:58:47;1.97;;;1.40;;
46589;SDS011;32313;48.722;9.362;2023-08-01T12:01:14;1.50;;;1.40;;
46589;SDS011;32313;48.722;9.362;2023-08-01T12:03:47;1.30;;;1.20;;
46589;SDS011;32313;48.722;9.362;2023-08-01T12:06:13;1.30;;;1.20;;
46589;SDS011;32313;48.722;9.362;2023-08-01T12:08:40;2.17;;;1.20;;
46589;SDS011;32313;48.722;9.362;2023-08-01T12:11:16;2.80;;;1.27;;
46589;SDS011;32313;48.722;9.362;2023-08-01T12:14:26;2.13;;;1.40;;
46589;SDS011;32313;48.722;9.362;2023-08-01T12:16:45;2.63;;;1.50;;
46589;SDS011;32313;48.722;9.362;2023-08-01T12:19:18;2.10;;;1.40;;
46589;SDS011;32313;48.722;9.362;2023-08-01T12:21:45;2.53;;;1.70;;
46589;SDS011;32313;48.722;9.362;2023-08-01T12:24:11;2.30;;;1.30;;
46589;SDS011;32313;48.722;9.362;2023-08-01T12:26:37;1.33;;;1.23;;
46589;SDS011;32313;48.722;9.362;2023-08-01T12:29:03;1.83;;;1.40;;
46589;SDS011;32313;48.722;9.362;2023-08-01T12:31:28;1.73;;;1.40;;
46589;SDS011;32313;48.722;9.362;2023-08-01T12:33:54;2.57;;;1.57;;
46589;SDS011;32313;48.722;9.362;2023-08-01T12:36:20;1.60;;;1.50;;
46589;SDS011;32313;48.722;9.362;2023-08-01T12:38:46;2.43;;;1.60;;
46589;SDS011;32313;48.722;9.362;2023-08-01T12:41:12;1.93;;;1.60;;
46589;SDS011;32313;48.722;9.362;2023-08-01T12:43:37;1.40;;;1.30;;
46589;SDS011;32313;48.722;9.362;2023-08-01T12:46:03;1.80;;;1.70;;
46589;SDS011;32313;48.722;9.362;2023-08-01T12:48:29;2.23;;;1.40;;
46589;SDS011;32313;48.722;9.362;2023-08-01T12:50:55;1.73;;;1.40;;
46589;SDS011;32313;48.722;9.362;2023-08-01T12:53:21;3.00;;;1.50;;
46589;SDS011;32313;48.722;9.362;2023-08-01T12:55:50;1.50;;;1.40;;
46589;SDS011;32313;48.722;9.362;2023-08-01T12:58:16;1.97;;;1.40;;
46589;SDS011;32313;48.722;9.362;2023-08-01T13:00:42;1.50;;;1.40;;
46589;SDS011;32313;48.722;9.362;2023-08-01T13:03:09;1.73;;;1.50;;
46589;SDS011;32313;48.722;9.362;2023-08-01T13:05:35;2.47;;;1.40;;
46589;SDS011;32313;48.722;9.362;2023-08-01T13:08:02;2.00;;;1.70;;
46589;SDS011;32313;48.722;9.362;2023-08-01T13:10:32;1.63;;;1.53;;
46589;SDS011;32313;48.722;9.362;2023-08-01T13:12:59;2.93;;;1.33;;
46589;SDS011;32313;48.722;9.362;2023-08-01T13:15:25;2.13;;;1.40;;
46589;SDS011;32313;48.722;9.362;2023-08-01T13:17:52;2.53;;;1.53;;
46589;SDS011;32313;48.722;9.362;2023-08-01T13:20:18;2.77;;;1.47;;
46589;SDS011;32313;48.722;9.362;2023-08-01T13:22:45;2.70;;;1.53;;
46589;SDS011;32313;48.722;9.362;2023-08-01T13:25:15;1.90;;;1.67;;
46589;SDS011;32313;48.722;9.362;2023-08-01T13:27:41;2.70;;;1.23;;
46589;SDS011;32313;48.722;9.362;2023-08-01T13:30:07;2.63;;;1.60;;
46589;SDS011;32313;48.722;9.362;2023-08-01T13:32:33;2.57;;;1.50;;
46589;SDS011;32313;48.722;9.362;2023-08-01T13:34:59;1.60;;;1.50;;
46589;SDS011;32313;48.722;9.362;2023-08-01T13:37:25;2.27;;;1.60;;
46589;SDS011;32313;48.722;9.362;2023-08-01T13:39:51;3.17;;;1.57;;
46589;SDS011;32313;48.722;9.362;2023-08-01T13:42:16;1.40;;;1.27;;
46589;SDS011;32313;48.722;9.362;2023-08-01T13:44:42;2.13;;;1.73;;
46589;SDS011;32313;48.722;9.362;2023-08-01T13:47:08;3.00;;;1.57;;
46589;SDS011;32313;48.722;9.362;2023-08-01T13:49:34;1.43;;;1.30;;
46589;SDS011;32313;48.722;9.362;2023-08-01T13:51:59;1.97;;;1.70;;
46589;SDS011;32313;48.722;9.362;2023-08-01T13:54:25;2.20;;;1.63;;
46589;SDS011;32313;48.722;9.362;2023-08-01T13:56:51;3.70;;;1.70;;
46589;SDS011;32313;48.722;9.362;2023-08-01T13:59:18;1.57;;;1.47;;
46589;SDS011;32313;48.722;9.362;2023-08-01T14:01:45;1.90;;;1.53;;
46589;SDS011;32313;48.722;9.362;2023-08-01T14:04:11;2.73;;;1.50;;
46589;SDS011;32313;48.722;9.362;2023-08-01T14:06:40;1.53;;;1.30;;
46589;SDS011;32313;48.722;9.362;2023-08-01T14:09:07;2.53;;;1.50;;
46589;SDS011;32313;48.722;9.362;2023-08-01T14:11:34;2.00;;;1.50;;
46589;SDS011;32313;48.722;9.362;2023-08-01T14:14:00;1.88;;;1.60;;
46589;SDS011;32313;48.722;9.362;2023-08-01T14:16:25;4.95;;;1.70;;
46589;SDS011;32313;48.722;9.362;2023-08-01T14:18:51;1.47;;;1.30;;
46589;SDS011;32313;48.722;9.362;2023-08-01T14:21:17;6.00;;;1.53;;
46589;SDS011;32313;48.722;9.362;2023-08-01T14:23:43;1.67;;;1.50;;
46589;SDS011;32313;48.722;9.362;2023-08-01T14:26:08;1.50;;;1.40;;
46589;SDS011;32313;48.722;9.362;2023-08-01T14:28:34;1.73;;;1.50;;
46589;SDS011;32313;48.722;9.362;2023-08-01T14:31:00;1.90;;;1.47;;
46589;SDS011;32313;48.722;9.362;2023-08-01T14:33:27;2.08;;;1.60;;
46589;SDS011;32313;48.722;9.362;2023-08-01T14:35:53;1.90;;;1.47;;
46589;SDS011;32313;48.722;9.362;2023-08-01T14:38:19;2.03;;;1.60;;
46589;SDS011;32313;48.722;9.362;2023-08-01T14:40:44;2.65;;;1.40;;
46589;SDS011;32313;48.722;9.362;2023-08-01T14:43:10;5.43;;;1.90;;
46589;SDS011;32313;48.722;9.362;2023-08-01T14:45:39;1.67;;;1.47;;
46589;SDS011;32313;48.722;9.362;2023-08-01T14:48:06;1.30;;;1.20;;
46589;SDS011;32313;48.722;9.362;2023-08-01T14:50:32;2.17;;;1.50;;